Time;durP1;ratioP1;P1;durP2;ratioP2;P2;SDS_P1;SDS_P2;PMS_P1;PMS_P2;Temp;Humidity;BMP_temperature;BMP_pressure;BME280_temperature;BME280_humidity;BME280_pressure;Samples;Min_cycle;Max_cycle;Signal;HPM_P1;HPM_P2
2023/12/28 00:01:03;;;;;;;4.60;4.17;;;4.40;99.90;;;;;;5205814;28;20186;-51
2023/12/28 00:03:34;;;;;;;5.97;3.03;;;4.40;99.90;;;;;;5192351;28;20484;-51
2023/12/28 00:06:05;;;;;;;7.60;4.03;;;4.40;99.90;;;;;;5200952;28;20214;-50
2023/12/28 00:08:36;;;;;;;11.77;4.40;;;4.40;99.90;;;;;;5198566;28;20178;-51
2023/12/28 00:11:07;;;;;;;7.03;4.30;;;4.60;99.90;;;;;;5200777;28;20447;-52
2023/12/28 00:13:37;;;;;;;9.90;4.47;;;4.50;99.90;;;;;;5185239;28;20218;-52
2023/12/28 00:16:08;;;;;;;10.60;4.10;;;4.60;99.90;;;;;;5189604;28;20957;-51
2023/12/28 00:18:39;;;;;;;4.67;4.20;;;4.70;99.90;;;;;;5188113;28;20278;-51
2023/12/28 00:21:09;;;;;;;11.00;4.43;;;4.50;99.90;;;;;;5185016;28;20179;-51
2023/12/28 00:23:40;;;;;;;19.63;5.23;;;4.50;99.90;;;;;;5180853;28;20215;-51
2023/12/28 00:26:10;;;;;;;7.07;3.93;;;4.50;99.90;;;;;;5193732;28;20210;-52
2023/12/28 00:28:41;;;;;;;11.23;4.67;;;4.60;99.90;;;;;;5200590;28;20196;-52
2023/12/28 00:31:11;;;;;;;7.33;4.30;;;4.60;99.90;;;;;;5182104;28;20217;-51
2023/12/28 00:33:42;;;;;;;11.20;4.27;;;4.70;99.90;;;;;;5183844;28;20210;-50
2023/12/28 00:36:13;;;;;;;7.03;3.77;;;4.60;99.90;;;;;;5193724;28;20221;-51
2023/12/28 00:38:43;;;;;;;4.27;3.97;;;4.60;99.90;;;;;;5183938;28;20729;-50
2023/12/28 00:41:14;;;;;;;8.73;4.10;;;4.60;99.90;;;;;;5183345;28;20239;-51
2023/12/28 00:43:44;;;;;;;3.60;3.03;;;4.80;99.90;;;;;;5187005;28;20214;-50
2023/12/28 00:46:15;;;;;;;14.70;7.13;;;4.70;99.90;;;;;;5181877;28;20811;-52
2023/12/28 00:48:46;;;;;;;7.60;4.90;;;4.80;99.90;;;;;;5184317;28;20222;-51
2023/12/28 00:51:16;;;;;;;6.23;4.37;;;4.90;99.90;;;;;;5182758;28;20187;-51
2023/12/28 00:53:47;;;;;;;16.37;5.13;;;4.80;99.90;;;;;;5184548;28;20683;-51
2023/12/28 00:56:18;;;;;;;3.50;3.20;;;4.90;99.90;;;;;;5188641;28;20279;-51
2023/12/28 00:58:48;;;;;;;5.70;3.93;;;5.00;99.90;;;;;;5200397;28;20184;-52
2023/12/28 01:01:19;;;;;;;7.70;3.90;;;5.10;99.90;;;;;;5188711;28;20967;-50
2023/12/28 01:03:50;;;;;;;12.53;4.17;;;5.10;99.90;;;;;;5186927;28;20211;-52
2023/12/28 01:06:21;;;;;;;6.00;3.67;;;5.00;99.90;;;;;;5185628;28;20652;-49
2023/12/28 01:08:51;;;;;;;4.17;3.70;;;4.90;99.90;;;;;;5184413;28;20691;-49
2023/12/28 01:11:22;;;;;;;5.00;3.27;;;4.80;99.90;;;;;;5189167;28;20471;-52
2023/12/28 01:13:53;;;;;;;7.77;3.47;;;4.90;99.90;;;;;;5200031;28;20314;-52
2023/12/28 01:16:24;;;;;;;4.10;3.70;;;4.90;99.90;;;;;;5185932;28;20265;-50
2023/12/28 01:18:54;;;;;;;3.53;3.20;;;4.80;99.90;;;;;;5192469;28;20442;-51
2023/12/28 01:21:26;;;;;;;3.90;2.90;;;4.70;99.90;;;;;;5191651;28;20198;-51
2023/12/28 01:23:56;;;;;;;6.77;3.03;;;4.60;99.90;;;;;;5205142;28;20223;-52
2023/12/28 01:26:27;;;;;;;3.33;3.10;;;4.60;99.90;;;;;;5188822;28;20453;-51
2023/12/28 01:28:58;;;;;;;7.60;4.17;;;4.60;99.90;;;;;;5189848;28;20199;-49
2023/12/28 01:31:29;;;;;;;3.13;2.73;;;4.70;99.90;;;;;;5200185;28;20243;-52
2023/12/28 01:33:59;;;;;;;6.33;3.50;;;4.70;99.90;;;;;;5183576;28;20601;-51
2023/12/28 01:36:30;;;;;;;5.83;3.63;;;4.70;99.90;;;;;;5189649;28;20557;-50
2023/12/28 01:39:01;;;;;;;8.10;3.87;;;4.70;99.90;;;;;;5180683;28;20620;-52
2023/12/28 01:41:31;;;;;;;6.93;3.40;;;4.60;99.90;;;;;;5183519;28;20184;-53
2023/12/28 01:44:02;;;;;;;4.10;2.80;;;4.70;99.90;;;;;;5202470;28;20222;-51
2023/12/28 01:46:33;;;;;;;7.40;2.47;;;4.70;99.90;;;;;;5186272;28;20211;-53
2023/12/28 01:49:05;;;;;;;2.27;2.07;;;4.90;99.90;;;;;;5203118;28;20241;-53
2023/12/28 01:51:36;;;;;;;5.10;3.27;;;4.90;99.90;;;;;;5191925;28;20474;-51
2023/12/28 01:54:07;;;;;;;3.10;2.80;;;4.90;99.90;;;;;;5190433;28;20496;-50
2023/12/28 01:56:38;;;;;;;5.73;2.47;;;5.10;99.90;;;;;;5210615;28;20979;-51
2023/12/28 01:59:09;;;;;;;3.37;2.37;;;5.10;99.90;;;;;;5211080;28;20275;-51
2023/12/28 02:01:39;;;;;;;4.20;2.13;;;5.20;99.90;;;;;;5204059;28;20511;-50
2023/12/28 02:04:10;;;;;;;2.37;2.17;;;5.20;99.90;;;;;;5190182;28;20567;-51
2023/12/28 02:06:41;;;;;;;4.13;2.63;;;5.10;99.90;;;;;;5202020;28;20219;-51
2023/12/28 02:09:11;;;;;;;2.83;1.83;;;5.40;99.90;;;;;;5186593;28;20188;-51
2023/12/28 02:11:42;;;;;;;6.23;2.30;;;5.50;99.90;;;;;;5186740;28;20182;-52
2023/12/28 02:14:13;;;;;;;3.27;2.20;;;5.50;99.90;;;;;;5189363;28;20220;-52
2023/12/28 02:16:56;;;;;;;2.80;2.17;;;5.40;99.90;;;;;;5191061;28;20183;-51
2023/12/28 02:19:45;;;;;;;4.23;2.10;;;5.40;99.90;;;;;;5188881;28;20187;-52
2023/12/28 02:22:16;;;;;;;4.30;2.33;;;5.40;99.90;;;;;;5193165;28;20418;-51
2023/12/28 02:25:09;;;;;;;2.30;1.83;;;5.30;99.90;;;;;;5187909;28;21047;-51
2023/12/28 02:27:47;;;;;;;2.90;2.27;;;5.30;99.90;;;;;;5188767;28;20257;-51
2023/12/28 02:30:24;;;;;;;4.17;1.60;;;5.30;99.90;;;;;;5203959;28;20464;-53
2023/12/28 02:33:26;;;;;;;2.73;2.00;;;5.40;99.90;;;;;;5191425;28;20482;-52
2023/12/28 02:36:09;;;;;;;3.17;2.43;;;5.40;99.90;;;;;;5183284;28;20450;-51
2023/12/28 02:38:41;;;;;;;5.40;2.67;;;5.60;99.90;;;;;;5203294;28;20443;-51
2023/12/28 02:41:12;;;;;;;2.00;1.60;;;5.70;99.90;;;;;;5210301;28;20481;-50
2023/12/28 02:43:43;;;;;;;2.27;2.07;;;5.80;99.90;;;;;;5187500;28;20618;-52
2023/12/28 02:46:14;;;;;;;2.03;1.77;;;5.90;99.90;;;;;;5186318;28;20569;-51
2023/12/28 02:48:46;;;;;;;2.27;1.50;;;6.00;99.90;;;;;;5188129;28;20180;-53
2023/12/28 02:51:16;;;;;;;1.43;1.30;;;6.00;99.90;;;;;;5189170;28;20172;-50
2023/12/28 02:53:47;;;;;;;1.17;1.17;;;6.10;99.90;;;;;;5202148;28;20455;-51
2023/12/28 02:56:17;;;;;;;2.40;1.37;;;6.20;99.90;;;;;;5188912;28;20641;-52
2023/12/28 02:58:48;;;;;;;1.30;1.20;;;6.50;99.90;;;;;;5187963;28;20196;-52
2023/12/28 03:01:18;;;;;;;2.77;1.57;;;6.50;99.90;;;;;;5201125;28;20657;-52
2023/12/28 03:03:49;;;;;;;1.37;1.30;;;6.60;99.90;;;;;;5191930;28;20254;-52
2023/12/28 03:06:20;;;;;;;2.90;1.50;;;6.50;99.90;;;;;;5208635;28;20215;-50
2023/12/28 03:08:50;;;;;;;1.57;1.57;;;6.60;99.90;;;;;;5187929;28;20250;-51
2023/12/28 03:11:21;;;;;;;1.00;1.00;;;6.70;99.90;;;;;;5204737;28;20200;-51
2023/12/28 03:13:51;;;;;;;1.67;1.27;;;6.70;99.90;;;;;;5184187;28;20242;-51
2023/12/28 03:16:22;;;;;;;1.73;1.63;;;6.70;99.90;;;;;;5203948;28;20239;-52
2023/12/28 03:18:53;;;;;;;1.63;1.53;;;6.70;99.90;;;;;;5187470;28;20193;-50
2023/12/28 03:21:23;;;;;;;1.70;1.70;;;6.80;99.90;;;;;;5202834;28;20176;-52
2023/12/28 03:23:54;;;;;;;2.00;1.77;;;6.90;99.90;;;;;;5204967;28;20271;-52
2023/12/28 03:26:25;;;;;;;2.00;1.53;;;6.80;99.90;;;;;;5185650;28;20575;-53
2023/12/28 03:28:55;;;;;;;1.57;1.47;;;6.90;99.90;;;;;;5200428;28;20183;-52
2023/12/28 03:31:26;;;;;;;1.60;1.17;;;6.90;99.90;;;;;;5203806;28;20582;-53
2023/12/28 03:33:56;;;;;;;1.30;1.30;;;7.00;99.90;;;;;;5186228;28;20196;-51
2023/12/28 03:36:27;;;;;;;0.90;0.90;;;7.00;99.90;;;;;;5187469;28;20184;-53
2023/12/28 03:38:57;;;;;;;2.40;1.10;;;7.00;99.90;;;;;;5187893;28;20184;-52
2023/12/28 03:41:28;;;;;;;2.10;1.40;;;7.00;99.90;;;;;;5186834;28;20240;-50
2023/12/28 03:43:59;;;;;;;1.73;1.60;;;7.10;99.90;;;;;;5187767;28;20207;-52
2023/12/28 03:46:29;;;;;;;1.57;1.40;;;7.10;99.90;;;;;;5185413;28;20280;-51
2023/12/28 03:49:00;;;;;;;2.03;1.53;;;7.10;99.90;;;;;;5185925;28;20184;-51
2023/12/28 03:51:31;;;;;;;3.10;1.50;;;7.00;99.90;;;;;;5182206;28;20184;-52
2023/12/28 03:54:01;;;;;;;1.27;1.17;;;7.00;99.90;;;;;;5185154;28;20287;-52
2023/12/28 03:56:35;;;;;;;1.50;1.40;;;6.90;99.90;;;;;;5204114;28;20664;-52
2023/12/28 03:59:06;;;;;;;1.70;1.60;;;6.90;99.90;;;;;;5187380;28;20187;-51
2023/12/28 04:01:37;;;;;;;1.50;1.50;;;6.80;99.90;;;;;;5194109;28;20431;-51
2023/12/28 04:04:08;;;;;;;1.77;1.60;;;6.70;99.90;;;;;;5189355;28;20466;-50
2023/12/28 04:06:41;;;;;;;1.50;1.43;;;6.70;99.90;;;;;;5202417;28;20712;-50
2023/12/28 04:09:12;;;;;;;6.23;1.67;;;6.70;99.90;;;;;;5188260;28;20425;-52
2023/12/28 04:11:43;;;;;;;1.10;1.10;;;6.70;99.90;;;;;;5185447;28;20488;-51
2023/12/28 04:14:13;;;;;;;0.70;0.70;;;6.70;99.90;;;;;;5185554;28;21058;-50
2023/12/28 04:16:44;;;;;;;1.93;1.83;;;6.80;99.90;;;;;;5186706;28;20190;-51
2023/12/28 04:19:15;;;;;;;1.27;1.17;;;6.80;99.90;;;;;;5173262;28;20172;-51
2023/12/28 04:21:46;;;;;;;2.20;1.17;;;6.80;99.90;;;;;;5190470;28;20515;-50
2023/12/28 04:24:16;;;;;;;2.10;1.43;;;6.80;99.90;;;;;;5180573;28;20207;-50
2023/12/28 04:26:47;;;;;;;2.30;1.10;;;6.90;99.90;;;;;;5189512;28;20212;-52
2023/12/28 04:29:17;;;;;;;2.10;0.90;;;7.00;99.90;;;;;;5199410;28;20269;-51
2023/12/28 04:31:48;;;;;;;1.13;1.03;;;7.00;99.90;;;;;;5200973;28;20195;-52
2023/12/28 04:34:19;;;;;;;1.30;1.17;;;7.10;99.90;;;;;;5201445;28;20188;-53
2023/12/28 04:36:49;;;;;;;1.20;1.20;;;7.10;99.90;;;;;;5185714;28;20203;-51
2023/12/28 04:39:20;;;;;;;2.00;1.43;;;7.20;99.90;;;;;;5184104;28;20195;-50
2023/12/28 04:41:50;;;;;;;1.33;1.23;;;7.30;99.90;;;;;;5185812;28;20326;-51
2023/12/28 04:44:21;;;;;;;1.73;1.40;;;7.40;99.90;;;;;;5194681;28;20676;-50
2023/12/28 04:46:52;;;;;;;2.67;1.40;;;7.50;99.90;;;;;;5184075;28;20687;-52
2023/12/28 04:49:22;;;;;;;1.03;1.03;;;7.50;99.90;;;;;;5207348;28;20207;-53
2023/12/28 04:51:53;;;;;;;2.10;1.50;;;7.60;99.90;;;;;;5186552;28;20268;-52
2023/12/28 04:54:23;;;;;;;1.33;1.23;;;7.60;99.90;;;;;;5203321;28;20204;-51
2023/12/28 04:56:54;;;;;;;1.00;1.00;;;7.60;99.90;;;;;;5186337;28;20204;-52
2023/12/28 04:59:25;;;;;;;1.07;1.07;;;7.60;99.90;;;;;;5188938;28;20195;-51
2023/12/28 05:01:56;;;;;;;1.00;1.00;;;7.60;99.90;;;;;;5186181;28;20271;-50
2023/12/28 05:04:26;;;;;;;4.40;1.17;;;7.60;99.90;;;;;;5204131;28;20207;-51
2023/12/28 05:06:57;;;;;;;1.10;1.10;;;7.70;99.90;;;;;;5222058;22;20499;-46
2023/12/28 05:09:27;;;;;;;0.80;0.80;;;7.70;99.90;;;;;;5198646;28;20184;-46
2023/12/28 05:11:58;;;;;;;1.80;1.27;;;7.80;99.90;;;;;;5202041;28;20317;-46
2023/12/28 05:14:29;;;;;;;1.40;1.40;;;7.70;99.90;;;;;;5200437;28;20246;-47
2023/12/28 05:16:59;;;;;;;1.93;1.33;;;7.70;99.90;;;;;;5201503;28;20213;-48
2023/12/28 05:19:30;;;;;;;1.03;1.03;;;7.80;99.90;;;;;;5200449;28;20180;-46
2023/12/28 05:22:03;;;;;;;3.07;1.00;;;7.80;99.90;;;;;;5189078;28;20198;-48
2023/12/28 05:24:34;;;;;;;1.27;0.87;;;7.90;99.90;;;;;;5206336;28;20194;-47
2023/12/28 05:27:04;;;;;;;1.53;1.20;;;7.90;99.90;;;;;;5202494;28;20573;-47
2023/12/28 05:29:35;;;;;;;1.93;1.13;;;7.90;99.90;;;;;;5199234;28;20188;-47
2023/12/28 05:32:06;;;;;;;1.93;1.70;;;7.90;99.90;;;;;;5205322;28;20184;-47
2023/12/28 05:34:36;;;;;;;1.00;1.00;;;8.00;99.90;;;;;;5205485;28;20230;-46
2023/12/28 05:37:07;;;;;;;1.30;0.93;;;7.90;99.90;;;;;;5200834;28;20212;-47
2023/12/28 05:39:38;;;;;;;3.03;1.37;;;7.90;99.90;;;;;;5199420;28;20199;-47
2023/12/28 05:42:08;;;;;;;1.43;1.43;;;7.90;99.90;;;;;;5200451;28;20180;-46
2023/12/28 05:44:39;;;;;;;2.43;1.67;;;7.80;99.90;;;;;;5199285;28;20199;-47
2023/12/28 05:47:09;;;;;;;1.40;1.10;;;7.80;99.90;;;;;;5182269;28;20278;-48
2023/12/28 05:49:40;;;;;;;9.43;1.57;;;7.90;99.90;;;;;;5199681;28;20200;-46
2023/12/28 05:52:11;;;;;;;2.40;0.97;;;7.90;99.90;;;;;;5202377;28;20175;-48
2023/12/28 05:54:43;;;;;;;1.17;1.17;;;7.90;99.90;;;;;;5203296;28;20186;-47
2023/12/28 05:57:13;;;;;;;0.97;0.90;;;7.90;99.90;;;;;;5197299;28;20667;-47
2023/12/28 05:59:44;;;;;;;1.33;1.03;;;7.90;99.90;;;;;;5204366;28;20548;-46
2023/12/28 06:02:15;;;;;;;1.00;1.00;;;7.80;99.90;;;;;;5200194;28;20206;-48
2023/12/28 06:04:45;;;;;;;0.97;0.87;;;7.90;99.90;;;;;;5199217;28;20188;-49
2023/12/28 06:07:16;;;;;;;3.40;1.03;;;7.90;99.90;;;;;;5208134;28;20219;-46
2023/12/28 06:09:47;;;;;;;4.23;1.23;;;8.00;99.90;;;;;;5208015;28;20250;-47
2023/12/28 06:12:17;;;;;;;2.73;1.97;;;8.00;99.90;;;;;;5206865;28;20595;-48
2023/12/28 06:14:48;;;;;;;0.90;0.90;;;7.90;99.90;;;;;;5207942;28;20198;-48
2023/12/28 06:17:19;;;;;;;1.40;1.30;;;7.90;99.90;;;;;;5197302;28;20215;-47
2023/12/28 06:19:49;;;;;;;0.93;0.93;;;7.90;99.90;;;;;;5198355;28;20234;-46
2023/12/28 06:22:20;;;;;;;1.10;1.10;;;7.90;99.90;;;;;;5196545;28;20251;-48
2023/12/28 06:24:51;;;;;;;1.47;1.00;;;8.00;99.90;;;;;;5204065;28;20294;-46
2023/12/28 06:27:23;;;;;;;1.47;1.17;;;7.90;99.90;;;;;;5189159;28;20212;-46
2023/12/28 06:29:54;;;;;;;2.50;1.30;;;8.00;99.90;;;;;;5199627;28;20187;-46
2023/12/28 06:32:25;;;;;;;1.47;1.47;;;8.00;99.90;;;;;;5196989;28;20434;-46
2023/12/28 06:34:56;;;;;;;3.03;1.37;;;8.00;99.90;;;;;;5207567;28;20271;-48
2023/12/28 06:37:26;;;;;;;1.37;1.27;;;7.90;99.90;;;;;;5205766;28;20503;-46
2023/12/28 06:39:57;;;;;;;1.07;1.07;;;8.00;99.90;;;;;;5203172;28;20442;-46
2023/12/28 06:42:27;;;;;;;1.50;1.40;;;7.90;99.90;;;;;;5193935;28;20183;-46
2023/12/28 06:44:58;;;;;;;7.20;1.20;;;7.90;99.90;;;;;;5203495;28;20190;-47
2023/12/28 06:47:28;;;;;;;2.20;1.30;;;7.90;99.90;;;;;;5210848;28;20664;-45
2023/12/28 06:49:59;;;;;;;2.90;1.20;;;7.80;99.90;;;;;;5206572;28;20187;-46
2023/12/28 06:52:31;;;;;;;3.60;1.07;;;7.80;99.90;;;;;;5204926;28;20187;-47
2023/12/28 06:55:02;;;;;;;0.70;0.70;;;7.90;99.90;;;;;;5206368;28;20190;-46
2023/12/28 06:57:33;;;;;;;1.97;1.87;;;7.90;99.90;;;;;;5207118;28;20833;-47
2023/12/28 07:00:04;;;;;;;1.23;0.90;;;7.90;99.90;;;;;;5187894;28;20655;-46
2023/12/28 07:02:35;;;;;;;2.50;2.10;;;8.00;99.90;;;;;;5189524;28;20248;-46
2023/12/28 07:05:06;;;;;;;3.00;1.37;;;7.90;99.90;;;;;;5193472;28;20430;-45
2023/12/28 07:07:36;;;;;;;1.30;1.30;;;8.00;99.90;;;;;;5187146;28;20235;-47
2023/12/28 07:10:07;;;;;;;1.30;1.30;;;8.10;99.90;;;;;;5196608;28;20477;-47
2023/12/28 07:12:38;;;;;;;2.77;1.00;;;8.00;99.90;;;;;;5200087;28;20218;-47
2023/12/28 07:15:13;;;;;;;0.90;0.80;;;8.00;99.90;;;;;;5203670;28;20203;-46
2023/12/28 07:17:43;;;;;;;3.00;1.40;;;8.00;99.90;;;;;;5185820;28;20211;-46
2023/12/28 07:20:14;;;;;;;1.47;1.37;;;8.00;99.90;;;;;;5202285;28;20526;-46
2023/12/28 07:22:45;;;;;;;1.00;1.00;;;8.00;99.90;;;;;;5205310;28;20271;-47
2023/12/28 07:25:15;;;;;;;1.20;1.10;;;8.00;99.90;;;;;;5184351;28;20242;-45
2023/12/28 07:27:46;;;;;;;1.20;1.20;;;8.00;99.90;;;;;;5202254;28;20246;-46
2023/12/28 07:30:17;;;;;;;3.23;1.20;;;8.00;99.90;;;;;;5199212;28;20184;-46
2023/12/28 07:32:48;;;;;;;2.93;1.13;;;7.90;99.90;;;;;;5182153;28;20599;-47
2023/12/28 07:35:18;;;;;;;4.77;1.33;;;7.90;99.90;;;;;;5174853;28;20506;-47
2023/12/28 07:37:49;;;;;;;2.13;1.53;;;7.90;99.90;;;;;;5187639;28;20215;-46
2023/12/28 07:40:20;;;;;;;1.20;1.13;;;7.90;99.90;;;;;;5197806;28;20188;-47
2023/12/28 07:42:50;;;;;;;2.63;1.30;;;8.00;99.90;;;;;;5201190;28;20242;-47
2023/12/28 07:45:23;;;;;;;2.30;2.00;;;8.00;99.90;;;;;;5183172;28;20196;-48
2023/12/28 07:47:53;;;;;;;1.60;1.17;;;8.00;99.90;;;;;;5198768;28;20579;-46
2023/12/28 07:50:24;;;;;;;1.03;1.03;;;8.10;99.90;;;;;;5177684;28;20426;-46
2023/12/28 07:52:55;;;;;;;1.57;1.47;;;8.20;99.90;;;;;;5190331;28;20543;-46
2023/12/28 07:55:26;;;;;;;5.80;1.33;;;8.10;99.90;;;;;;5175731;28;20184;-47
2023/12/28 07:57:57;;;;;;;1.37;1.37;;;8.20;99.90;;;;;;5174858;28;20199;-48
2023/12/28 08:00:28;;;;;;;1.37;1.27;;;8.10;99.90;;;;;;5175060;28;20462;-48
2023/12/28 08:02:58;;;;;;;2.00;1.60;;;8.10;99.90;;;;;;5189073;28;20188;-48
2023/12/28 08:05:29;;;;;;;3.23;1.40;;;8.10;99.90;;;;;;5182139;28;20848;-47
2023/12/28 08:08:00;;;;;;;3.10;1.60;;;8.10;99.90;;;;;;5199100;28;20219;-49
2023/12/28 08:10:30;;;;;;;2.47;1.90;;;8.20;99.90;;;;;;5198162;28;20549;-49
2023/12/28 08:13:01;;;;;;;2.17;1.47;;;8.30;99.90;;;;;;5196626;28;20187;-48
2023/12/28 08:15:31;;;;;;;1.07;1.07;;;8.40;99.90;;;;;;5186734;28;20571;-48
2023/12/28 08:18:02;;;;;;;1.60;1.50;;;8.30;99.90;;;;;;5184416;28;20188;-49
2023/12/28 08:20:34;;;;;;;1.77;1.67;;;8.30;99.90;;;;;;5197989;28;20618;-49
2023/12/28 08:23:05;;;;;;;1.93;1.83;;;8.30;99.90;;;;;;5189826;28;20438;-47
2023/12/28 08:25:36;;;;;;;1.43;1.23;;;8.40;99.90;;;;;;5186052;28;20571;-48
2023/12/28 08:28:06;;;;;;;1.80;1.70;;;8.40;99.90;;;;;;5199392;28;20207;-48
2023/12/28 08:30:37;;;;;;;2.20;1.60;;;8.40;99.90;;;;;;5197854;28;21655;-48
2023/12/28 08:33:07;;;;;;;3.60;1.60;;;8.40;99.90;;;;;;5199543;28;20222;-49
2023/12/28 08:35:38;;;;;;;2.03;1.30;;;8.60;99.90;;;;;;5196343;28;20191;-48
2023/12/28 08:38:09;;;;;;;1.00;1.00;;;8.50;99.90;;;;;;5184556;28;20706;-49
2023/12/28 08:40:39;;;;;;;1.90;1.80;;;8.50;99.90;;;;;;5198618;28;20190;-48
2023/12/28 08:43:10;;;;;;;4.40;1.57;;;8.40;99.90;;;;;;5201259;28;20191;-48
2023/12/28 08:45:41;;;;;;;1.40;1.30;;;8.50;99.90;;;;;;5186829;28;20655;-47
2023/12/28 08:48:11;;;;;;;3.23;1.63;;;8.50;99.90;;;;;;5199078;28;20194;-49
2023/12/28 08:50:42;;;;;;;1.93;1.83;;;8.50;99.90;;;;;;5198879;28;20189;-48
2023/12/28 08:53:13;;;;;;;1.50;1.40;;;8.50;99.90;;;;;;5195053;28;20183;-49
2023/12/28 08:55:43;;;;;;;1.40;1.40;;;8.60;99.90;;;;;;5196251;28;20540;-49
2023/12/28 08:58:14;;;;;;;3.43;1.87;;;8.50;99.90;;;;;;5201555;28;20183;-49
2023/12/28 09:00:45;;;;;;;2.93;2.50;;;8.60;99.90;;;;;;5171191;28;20207;-49
2023/12/28 09:03:16;;;;;;;1.80;1.47;;;8.60;99.90;;;;;;5202318;28;20326;-48
2023/12/28 09:05:46;;;;;;;2.83;2.50;;;8.70;99.90;;;;;;5202136;28;20553;-48
2023/12/28 09:08:17;;;;;;;2.83;2.63;;;8.80;99.90;;;;;;5196587;28;20183;-49
2023/12/28 09:10:47;;;;;;;1.33;1.20;;;8.80;99.90;;;;;;5202177;28;20241;-48
2023/12/28 09:13:19;;;;;;;2.20;2.00;;;8.80;99.90;;;;;;5202981;28;20188;-48
2023/12/28 09:15:50;;;;;;;3.67;1.50;;;8.90;99.90;;;;;;5194677;28;20187;-48
2023/12/28 09:18:21;;;;;;;2.60;1.63;;;8.90;99.90;;;;;;5197358;28;20442;-48
2023/12/28 09:20:51;;;;;;;2.67;1.90;;;8.90;99.90;;;;;;5205771;28;20945;-49
2023/12/28 09:23:22;;;;;;;5.43;2.10;;;8.90;99.90;;;;;;5205098;28;20206;-48
2023/12/28 09:25:53;;;;;;;4.20;1.87;;;8.90;99.90;;;;;;5189507;28;20211;-49
2023/12/28 09:28:23;;;;;;;3.40;1.73;;;8.90;99.90;;;;;;5202531;28;20198;-47
2023/12/28 09:30:54;;;;;;;2.83;1.73;;;8.90;99.90;;;;;;5191694;28;20218;-49
2023/12/28 09:33:25;;;;;;;1.93;1.80;;;9.00;99.90;;;;;;5188793;28;20191;-47
2023/12/28 09:35:55;;;;;;;2.37;1.93;;;8.90;99.90;;;;;;5202433;28;20204;-48
2023/12/28 09:38:27;;;;;;;1.80;1.70;;;9.00;99.90;;;;;;5207305;28;20172;-48
2023/12/28 09:41:03;;;;;;;2.07;1.87;;;8.90;99.90;;;;;;5197823;28;20195;-49
2023/12/28 09:43:45;;;;;;;2.30;2.17;;;8.80;99.90;;;;;;5199990;28;20440;-49
2023/12/28 09:46:16;;;;;;;1.80;1.70;;;8.80;99.90;;;;;;5201858;28;20458;-49
2023/12/28 09:48:47;;;;;;;2.50;1.70;;;8.70;99.90;;;;;;5186818;28;20441;-48
2023/12/28 09:51:18;;;;;;;2.13;2.03;;;8.70;99.90;;;;;;5203343;28;20199;-50
2023/12/28 09:53:48;;;;;;;5.50;3.00;;;8.60;99.90;;;;;;5203037;28;20951;-48
2023/12/28 09:56:20;;;;;;;2.30;2.10;;;8.60;99.90;;;;;;5206211;28;20281;-48
2023/12/28 09:58:57;;;;;;;7.00;2.97;;;8.60;99.90;;;;;;5203583;28;20191;-50
2023/12/28 10:01:27;;;;;;;5.97;2.40;;;8.50;99.90;;;;;;5203634;28;20497;-48
2023/12/28 10:03:58;;;;;;;2.47;2.00;;;8.40;99.90;;;;;;5186357;28;20493;-48
2023/12/28 10:06:28;;;;;;;7.13;2.50;;;8.40;99.90;;;;;;5202835;28;20214;-48
2023/12/28 10:08:59;;;;;;;3.80;2.67;;;8.50;99.90;;;;;;5204341;28;20180;-48
2023/12/28 10:11:30;;;;;;;5.23;2.60;;;8.50;99.90;;;;;;5187413;28;20251;-48
2023/12/28 10:14:02;;;;;;;2.77;2.57;;;8.50;99.90;;;;;;5188796;28;20197;-48
2023/12/28 10:16:32;;;;;;;10.03;2.90;;;8.60;99.90;;;;;;5203935;28;20208;-48
2023/12/28 10:19:03;;;;;;;2.63;2.30;;;8.50;99.90;;;;;;5186403;28;20515;-48
2023/12/28 10:21:34;;;;;;;7.50;1.90;;;8.60;99.90;;;;;;5187474;28;20183;-49
2023/12/28 10:24:05;;;;;;;2.20;2.00;;;8.70;99.90;;;;;;5185330;28;20315;-48
2023/12/28 10:26:36;;;;;;;4.23;2.53;;;8.70;99.90;;;;;;5205594;28;20226;-48
2023/12/28 10:29:06;;;;;;;3.37;2.20;;;8.70;99.90;;;;;;5206541;28;20307;-48
2023/12/28 10:31:39;;;;;;;2.10;1.67;;;8.70;99.90;;;;;;5203029;28;21576;-49
2023/12/28 10:34:09;;;;;;;3.70;2.20;;;8.80;99.90;;;;;;5203719;28;20639;-49
2023/12/28 10:36:41;;;;;;;2.17;2.03;;;8.90;99.90;;;;;;5202540;28;20512;-49
2023/12/28 10:39:15;;;;;;;2.67;2.47;;;8.90;99.90;;;;;;5187219;28;20183;-47
2023/12/28 10:41:50;;;;;;;2.83;2.20;;;9.00;99.90;;;;;;5187556;28;20442;-48
2023/12/28 10:44:25;;;;;;;3.80;2.00;;;9.10;99.90;;;;;;5203034;28;20448;-48
2023/12/28 10:47:00;;;;;;;3.60;2.07;;;9.10;99.90;;;;;;5200314;28;22341;-48
2023/12/28 10:49:35;;;;;;;2.83;2.20;;;9.10;99.90;;;;;;5205372;28;20442;-48
2023/12/28 10:52:08;;;;;;;2.70;2.00;;;9.10;99.90;;;;;;5189948;28;20434;-48
2023/12/28 10:54:47;;;;;;;2.63;1.83;;;9.20;99.90;;;;;;5201052;28;20450;-49
2023/12/28 10:57:32;;;;;;;3.73;2.10;;;9.30;99.90;;;;;;5185171;28;21097;-48
2023/12/28 11:00:08;;;;;;;2.40;2.10;;;9.40;99.90;;;;;;5190498;28;20558;-49
2023/12/28 11:02:44;;;;;;;2.63;2.43;;;9.40;99.90;;;;;;5215044;28;20445;-49
2023/12/28 11:05:17;;;;;;;3.97;2.20;;;9.40;99.90;;;;;;5203018;28;20530;-48
2023/12/28 11:07:49;;;;;;;2.63;2.50;;;9.40;99.90;;;;;;5216735;22;20926;-52
2023/12/28 11:10:23;;;;;;;1.67;1.57;;;9.40;99.90;;;;;;5210726;28;20434;-52
2023/12/28 11:12:56;;;;;;;2.00;1.67;;;9.50;99.90;;;;;;5188277;28;20438;-50
2023/12/28 11:15:26;;;;;;;5.77;2.27;;;9.60;99.90;;;;;;5192935;28;20443;-50
2023/12/28 11:17:57;;;;;;;3.07;2.33;;;9.80;99.90;;;;;;5205708;28;20508;-51
2023/12/28 11:20:29;;;;;;;3.23;1.97;;;9.90;99.90;;;;;;5202079;28;20191;-51
2023/12/28 11:23:00;;;;;;;2.53;2.33;;;10.10;99.90;;;;;;5186831;28;20603;-54
2023/12/28 11:25:32;;;;;;;1.90;1.80;;;10.30;99.90;;;;;;5181253;28;20441;-51
2023/12/28 11:28:10;;;;;;;1.93;1.87;;;10.40;99.90;;;;;;5201719;28;20481;-53
2023/12/28 11:30:43;;;;;;;4.27;2.00;;;10.50;99.90;;;;;;5205788;28;20517;-52
2023/12/28 11:33:13;;;;;;;1.80;1.70;;;10.70;99.90;;;;;;5191558;28;20450;-52
2023/12/28 11:35:47;;;;;;;3.20;1.80;;;10.70;99.90;;;;;;5191145;28;20433;-53
2023/12/28 11:38:18;;;;;;;4.80;2.27;;;10.70;99.90;;;;;;5196835;28;20196;-53
2023/12/28 11:40:50;;;;;;;3.93;2.03;;;10.70;99.90;;;;;;5173501;28;20965;-51
2023/12/28 11:43:21;;;;;;;2.87;1.90;;;10.80;99.90;;;;;;5199732;28;20442;-53
2023/12/28 11:45:55;;;;;;;2.53;1.20;;;10.70;99.90;;;;;;5204186;28;20847;-51
2023/12/28 11:48:27;;;;;;;2.97;1.53;;;10.90;99.90;;;;;;5192390;28;20431;-52
2023/12/28 11:51:00;;;;;;;2.20;2.00;;;10.80;99.90;;;;;;5204822;28;20742;-57
2023/12/28 11:53:31;;;;;;;1.57;1.43;;;10.70;99.90;;;;;;5202369;28;20430;-51
2023/12/28 11:56:02;;;;;;;5.40;1.67;;;10.70;99.90;;;;;;5204115;28;20445;-50
2023/12/28 11:58:34;;;;;;;1.70;1.60;;;10.60;99.90;;;;;;5213215;28;20438;-53
2023/12/28 12:01:04;;;;;;;5.07;2.30;;;10.60;99.90;;;;;;5202941;28;20441;-51
2023/12/28 12:03:35;;;;;;;3.10;2.07;;;10.60;99.90;;;;;;5199125;28;20430;-51
2023/12/28 12:06:06;;;;;;;2.10;2.00;;;10.50;99.90;;;;;;5189638;28;20194;-50
2023/12/28 12:08:37;;;;;;;3.03;1.70;;;10.50;99.90;;;;;;5204002;28;20172;-53
2023/12/28 12:11:08;;;;;;;2.73;2.17;;;10.50;99.90;;;;;;5203744;28;20879;-52
2023/12/28 12:13:38;;;;;;;3.50;2.70;;;10.40;99.90;;;;;;5200782;28;20192;-52
2023/12/28 12:16:09;;;;;;;12.17;2.67;;;10.40;99.90;;;;;;5205268;28;20184;-53
2023/12/28 12:18:40;;;;;;;4.50;2.30;;;10.30;99.90;;;;;;5206007;28;20656;-52
2023/12/28 12:21:11;;;;;;;3.53;2.80;;;10.40;99.90;;;;;;5187081;28;20199;-51
2023/12/28 12:23:42;;;;;;;2.00;1.90;;;10.50;99.90;;;;;;5188257;28;20276;-52
2023/12/28 12:26:13;;;;;;;2.07;1.90;;;10.40;99.90;;;;;;5203898;28;20516;-51
2023/12/28 12:28:44;;;;;;;3.67;1.73;;;10.30;99.90;;;;;;5190930;28;20457;-51
2023/12/28 12:31:15;;;;;;;4.23;2.33;;;10.30;99.90;;;;;;5202464;28;20202;-51
2023/12/28 12:33:46;;;;;;;1.60;1.60;;;10.40;99.90;;;;;;5202937;28;20438;-51
2023/12/28 12:36:17;;;;;;;4.37;1.97;;;10.30;99.90;;;;;;5203721;28;20208;-52
2023/12/28 12:38:48;;;;;;;1.67;1.57;;;10.30;99.90;;;;;;5203868;28;20183;-52
2023/12/28 12:41:19;;;;;;;2.27;2.17;;;10.30;99.90;;;;;;5203709;28;20461;-51
2023/12/28 12:43:49;;;;;;;5.97;2.27;;;10.30;99.90;;;;;;5189651;28;20217;-51
2023/12/28 12:46:20;;;;;;;2.33;2.20;;;10.30;99.90;;;;;;5203007;28;20296;-52
2023/12/28 12:49:10;;;;;;;1.93;1.80;;;10.30;99.90;;;;;;5204962;28;20671;-52
2023/12/28 12:51:41;;;;;;;1.73;1.73;;;10.30;99.90;;;;;;5202409;28;20199;-51
2023/12/28 12:54:11;;;;;;;2.50;2.40;;;10.40;99.90;;;;;;5206011;28;20415;-52
2023/12/28 12:56:45;;;;;;;2.40;2.20;;;10.60;99.90;;;;;;5188471;28;20207;-51
2023/12/28 12:59:17;;;;;;;3.00;1.87;;;10.60;99.90;;;;;;5187233;28;20179;-50
2023/12/28 13:01:52;;;;;;;3.90;2.43;;;10.40;99.90;;;;;;5190789;28;20470;-53
2023/12/28 13:04:23;;;;;;;2.80;2.20;;;10.40;99.90;;;;;;5192762;28;20438;-53
2023/12/28 13:06:53;;;;;;;2.70;1.50;;;10.30;99.90;;;;;;5204462;28;21028;-51
2023/12/28 13:09:24;;;;;;;1.73;1.57;;;10.30;99.90;;;;;;5203805;28;20290;-54
2023/12/28 13:11:56;;;;;;;1.53;1.50;;;10.20;99.90;;;;;;5204850;28;20179;-50
2023/12/28 13:14:27;;;;;;;1.80;1.70;;;10.10;99.90;;;;;;5204096;28;20513;-53
2023/12/28 13:16:57;;;;;;;2.50;2.07;;;10.20;99.90;;;;;;5207918;28;21076;-51